createdAt,value
2019-05-16T00:01:45.386Z,83.20
2019-05-16T00:04:11.828Z,82.40
2019-05-16T00:06:39.039Z,82.80
2019-05-16T00:09:08.013Z,82.70
2019-05-16T00:11:35.527Z,82.60
2019-05-16T00:14:02.921Z,82.90
2019-05-16T00:16:29.399Z,82.80
2019-05-16T00:18:55.733Z,82.90
2019-05-16T00:21:22.346Z,82.80
2019-05-16T00:23:48.839Z,82.50
2019-05-16T00:26:15.615Z,82.50
2019-05-16T00:28:42.154Z,82.50
2019-05-16T00:31:08.830Z,82.90
2019-05-16T00:33:38.021Z,82.60
2019-05-16T00:36:05.997Z,82.30
2019-05-16T00:38:33.140Z,82.50
2019-05-16T00:40:59.500Z,82.40
2019-05-16T00:43:25.878Z,82.40
2019-05-16T00:45:52.321Z,82.40
2019-05-16T00:48:18.750Z,82.60
2019-05-16T00:50:45.299Z,82.50
2019-05-16T00:53:11.752Z,82.80
2019-05-16T00:55:39.313Z,82.90
2019-05-16T00:58:08.672Z,82.80
2019-05-16T01:00:38.827Z,82.50
2019-05-16T01:03:05.325Z,82.50
2019-05-16T01:05:31.705Z,82.10
2019-05-16T01:07:59.031Z,82.10
2019-05-16T01:10:25.461Z,82.10
2019-05-16T01:12:51.890Z,81.70
2019-05-16T01:15:20.125Z,82.20
2019-05-16T01:17:48.335Z,81.40
2019-05-16T01:20:14.728Z,81.50
2019-05-16T01:22:41.072Z,81.30
2019-05-16T01:25:09.315Z,81.30
2019-05-16T01:27:35.821Z,81.40
2019-05-16T01:30:05.751Z,81.20
2019-05-16T01:32:32.314Z,81.80
2019-05-16T01:34:58.983Z,81.70
2019-05-16T01:37:27.898Z,81.50
2019-05-16T01:39:54.418Z,81.60
2019-05-16T01:42:20.996Z,81.80
2019-05-16T01:44:48.744Z,82.10
2019-05-16T01:47:15.186Z,81.80
2019-05-16T01:49:41.620Z,81.80
2019-05-16T01:52:08.611Z,82.10
2019-05-16T01:54:36.020Z,81.90
2019-05-16T01:57:02.526Z,82.00
2019-05-16T01:59:30.001Z,82.20
2019-05-16T02:02:00.609Z,82.10
2019-05-16T02:04:24.686Z,81.70
2019-05-16T02:06:54.672Z,81.60
2019-05-16T02:09:19.821Z,81.80
2019-05-16T02:11:48.093Z,81.90
2019-05-16T02:14:15.118Z,81.60
2019-05-16T02:16:43.527Z,81.90
2019-05-16T02:19:09.959Z,81.50
2019-05-16T02:21:38.855Z,81.90
2019-05-16T02:24:05.366Z,81.90
2019-05-16T02:26:31.792Z,81.60
2019-05-16T02:29:00.698Z,82.40
2019-05-16T02:31:26.510Z,82.50
2019-05-16T02:33:52.963Z,82.20
2019-05-16T02:36:21.636Z,81.90
2019-05-16T02:38:51.422Z,81.80
2019-05-16T02:41:15.876Z,81.80
2019-05-16T02:43:43.205Z,81.90
2019-05-16T02:46:12.007Z,82.20
2019-05-16T02:48:40.806Z,82.20
2019-05-16T02:51:06.256Z,82.10
2019-05-16T02:53:32.680Z,81.90
2019-05-16T02:56:01.332Z,82.20
2019-05-16T02:58:30.496Z,81.90
2019-05-16T03:00:55.621Z,82.00
2019-05-16T03:03:22.023Z,81.50
2019-05-16T03:05:50.752Z,81.70
2019-05-16T03:08:17.407Z,81.70
2019-05-16T03:10:43.832Z,81.80
2019-05-16T03:13:11.222Z,81.80
2019-05-16T03:15:40.478Z,81.90
2019-05-16T03:18:07.218Z,81.80
2019-05-16T03:20:33.687Z,82.00
2019-05-16T03:23:02.297Z,82.00
2019-05-16T03:25:31.059Z,81.90
2019-05-16T03:27:57.786Z,82.20
2019-05-16T03:30:24.310Z,82.50
2019-05-16T03:32:54.604Z,82.10
2019-05-16T03:35:23.985Z,82.40
2019-05-16T03:37:55.526Z,82.00
2019-05-16T03:40:22.095Z,81.90
2019-05-16T03:42:51.683Z,81.70
2019-05-16T03:45:16.613Z,81.80
2019-05-16T03:47:44.095Z,81.50
2019-05-16T03:50:11.276Z,81.50
2019-05-16T03:52:42.403Z,81.60
2019-05-16T03:55:06.121Z,82.10
2019-05-16T03:57:32.582Z,82.00
2019-05-16T04:00:00.617Z,81.90
2019-05-16T04:02:30.670Z,81.80
2019-05-16T04:04:55.551Z,82.20
2019-05-16T04:07:21.942Z,81.90
2019-05-16T04:09:50.732Z,81.80
2019-05-16T04:12:17.238Z,81.80
2019-05-16T04:14:43.624Z,81.80
2019-05-16T04:17:10.948Z,81.90
2019-05-16T04:19:41.343Z,82.20
2019-05-16T04:22:10.638Z,81.90
2019-05-16T04:24:37.017Z,81.90
2019-05-16T04:27:03.396Z,81.70
2019-05-16T04:29:31.934Z,81.90
2019-05-16T04:32:01.147Z,81.80
2019-05-16T04:34:26.604Z,82.50
2019-05-16T04:36:53.018Z,82.40
2019-05-16T04:39:20.856Z,82.20
2019-05-16T04:41:50.727Z,82.00
2019-05-16T04:44:15.713Z,82.00
2019-05-16T04:46:43.122Z,82.20
2019-05-16T04:49:11.211Z,82.40
2019-05-16T04:51:41.375Z,82.40
2019-05-16T04:54:11.074Z,82.30
2019-05-16T04:56:36.408Z,82.80
2019-05-16T04:59:02.895Z,83.10
2019-05-16T05:01:30.764Z,83.20
2019-05-16T05:04:06.186Z,82.70
2019-05-16T05:06:25.604Z,82.50
2019-05-16T05:08:58.488Z,82.50
2019-05-16T05:11:21.599Z,82.60
2019-05-16T05:13:50.456Z,82.40
2019-05-16T05:16:16.476Z,82.90
2019-05-16T05:18:42.932Z,82.80
2019-05-16T05:21:11.647Z,83.10
2019-05-16T05:23:40.495Z,83.30
2019-05-16T05:26:06.551Z,83.30
2019-05-16T05:28:33.121Z,83.60
2019-05-16T05:30:59.903Z,83.70
2019-05-16T05:33:26.444Z,83.60
2019-05-16T05:35:52.965Z,83.60
2019-05-16T05:38:21.201Z,83.50
2019-05-16T05:40:47.683Z,82.90
2019-05-16T05:43:14.166Z,83.20
2019-05-16T05:45:40.541Z,82.10
2019-05-16T05:48:06.831Z,82.00
2019-05-16T05:50:33.194Z,83.40
2019-05-16T05:53:01.448Z,83.80
2019-05-16T05:55:31.121Z,82.60
2019-05-16T05:57:56.290Z,83.50
2019-05-16T06:00:22.629Z,82.60
2019-05-16T06:02:50.807Z,81.10
2019-05-16T06:05:19.970Z,80.90
2019-05-16T06:07:45.441Z,80.40
2019-05-16T06:10:11.841Z,80.00
2019-05-16T06:12:40.559Z,78.90
2019-05-16T06:15:09.072Z,77.40
2019-05-16T06:17:34.794Z,76.90
2019-05-16T06:20:01.239Z,76.90
2019-05-16T06:22:29.887Z,76.70
2019-05-16T06:24:56.354Z,75.60
2019-05-16T06:27:22.775Z,74.30
2019-05-16T06:29:49.742Z,73.20
2019-05-16T06:32:16.181Z,73.20
2019-05-16T06:34:42.633Z,71.90
2019-05-16T06:37:09.848Z,71.60
2019-05-16T06:39:41.937Z,71.20
2019-05-16T06:42:05.528Z,70.10
2019-05-16T06:44:32.066Z,69.90
2019-05-16T06:47:14.940Z,69.80
2019-05-16T06:49:26.693Z,69.50
2019-05-16T06:51:53.237Z,69.00
2019-05-16T06:54:20.768Z,68.10
2019-05-16T06:56:47.260Z,67.50
2019-05-16T06:59:13.642Z,67.20
2019-05-16T07:01:40.563Z,66.30
2019-05-16T07:04:10.430Z,66.10
2019-05-16T07:06:54.942Z,66.60
2019-05-16T07:09:06.481Z,66.20
2019-05-16T07:11:32.921Z,65.60
2019-05-16T07:14:00.624Z,65.60
2019-05-16T07:16:27.120Z,64.80
2019-05-16T07:18:53.499Z,62.70
2019-05-16T07:21:20.302Z,63.40
2019-05-16T07:23:51.077Z,63.20
2019-05-16T07:26:17.673Z,62.30
2019-05-16T07:28:43.998Z,63.70
2019-05-16T07:31:17.474Z,65.30
2019-05-16T07:33:40.690Z,65.50
2019-05-16T07:36:09.748Z,65.00
2019-05-16T07:38:35.579Z,65.00
2019-05-16T07:41:01.944Z,64.90
2019-05-16T07:43:30.578Z,62.90
2019-05-16T07:45:56.814Z,61.90
2019-05-16T07:48:23.294Z,62.10
2019-05-16T07:50:50.041Z,61.60
2019-05-16T07:53:16.766Z,62.80
2019-05-16T07:55:43.175Z,62.10
2019-05-16T07:58:10.260Z,62.50
2019-05-16T08:00:49.428Z,63.40
2019-05-16T08:03:06.170Z,62.40
2019-05-16T08:05:33.403Z,62.30
2019-05-16T08:08:01.052Z,62.60
2019-05-16T08:10:38.105Z,63.00
2019-05-16T08:12:55.717Z,62.80
2019-05-16T08:15:22.260Z,60.10
2019-05-16T08:17:51.254Z,61.80
2019-05-16T08:20:16.880Z,60.30
2019-05-16T08:22:43.347Z,60.40
2019-05-16T08:25:11.628Z,61.20
2019-05-16T08:27:40.973Z,63.40
2019-05-16T08:30:10.980Z,61.10
2019-05-16T08:32:36.625Z,60.50
2019-05-16T08:35:05.179Z,60.00
2019-05-16T08:37:41.720Z,59.60
2019-05-16T08:40:03.504Z,58.90
2019-05-16T08:42:32.368Z,60.10
2019-05-16T08:45:01.153Z,60.70
2019-05-16T08:47:26.593Z,59.70
2019-05-16T08:49:52.957Z,58.00
2019-05-16T08:52:22.432Z,58.70
2019-05-16T08:54:51.039Z,59.40
2019-05-16T08:57:27.113Z,58.30
2019-05-16T08:59:44.861Z,57.80
2019-05-16T09:02:12.518Z,59.10
2019-05-16T09:04:44.132Z,58.90
2019-05-16T09:07:07.341Z,59.70
2019-05-16T09:09:44.059Z,57.20
2019-05-16T09:12:02.092Z,58.20
2019-05-16T09:14:35.162Z,58.30
2019-05-16T09:16:58.321Z,58.40
2019-05-16T09:19:27.368Z,60.60
2019-05-16T09:21:53.131Z,58.70
2019-05-16T09:24:20.057Z,59.60
2019-05-16T09:26:47.642Z,59.20
2019-05-16T09:29:16.699Z,58.20
2019-05-16T09:31:42.309Z,56.50
2019-05-16T09:34:08.749Z,57.40
2019-05-16T09:36:37.170Z,60.00
2019-05-16T09:39:08.400Z,60.00
2019-05-16T09:41:49.785Z,58.40
2019-05-16T09:44:03.086Z,57.60
2019-05-16T09:46:29.460Z,59.20
2019-05-16T09:49:14.832Z,57.90
2019-05-16T09:51:26.911Z,55.70
2019-05-16T09:53:53.299Z,56.60
2019-05-16T09:56:20.604Z,54.50
2019-05-16T09:58:47.097Z,54.70
2019-05-16T10:01:13.913Z,54.80
2019-05-16T10:03:40.364Z,53.60
2019-05-16T10:06:08.005Z,56.50
2019-05-16T10:08:37.257Z,56.50
2019-05-16T10:11:03.001Z,57.90
2019-05-16T10:13:29.673Z,57.20
2019-05-16T10:15:56.137Z,56.10
2019-05-16T10:18:22.742Z,54.90
2019-05-16T10:20:50.027Z,56.40
2019-05-16T10:23:18.148Z,54.60
2019-05-16T10:25:47.705Z,54.10
2019-05-16T10:28:17.404Z,54.50
2019-05-16T10:30:42.829Z,55.30
2019-05-16T10:33:09.251Z,55.00
2019-05-16T10:35:37.243Z,55.10
2019-05-16T10:38:05.818Z,58.10
2019-05-16T10:40:32.274Z,57.50
2019-05-16T10:42:58.654Z,58.70
2019-05-16T10:45:27.155Z,54.90
2019-05-16T10:47:53.363Z,54.70
2019-05-16T10:50:19.796Z,53.90
2019-05-16T10:52:48.931Z,55.20
2019-05-16T10:55:17.431Z,54.10
2019-05-16T10:57:43.022Z,56.70
2019-05-16T11:00:18.234Z,54.40
2019-05-16T11:02:38.672Z,57.20
2019-05-16T11:05:22.456Z,54.30
2019-05-16T11:07:33.511Z,54.80
2019-05-16T11:10:03.499Z,56.50
2019-05-16T11:12:45.205Z,59.40
2019-05-16T11:14:56.368Z,57.80
2019-05-16T11:17:22.775Z,58.60
2019-05-16T11:19:49.161Z,58.30
2019-05-16T11:22:16.513Z,56.10
2019-05-16T11:24:42.964Z,56.20
2019-05-16T11:27:09.309Z,58.00
2019-05-16T11:29:36.773Z,55.90
2019-05-16T11:32:03.190Z,54.00
2019-05-16T11:34:29.592Z,52.30
2019-05-16T11:36:56.982Z,55.70
2019-05-16T11:39:23.457Z,53.50
2019-05-16T11:41:49.894Z,53.40
2019-05-16T11:44:17.779Z,52.90
2019-05-16T11:46:44.205Z,53.50
2019-05-16T11:49:10.852Z,54.20
2019-05-16T11:51:38.400Z,55.20
2019-05-16T11:54:06.854Z,55.60
2019-05-16T11:56:33.005Z,58.70
2019-05-16T11:58:59.328Z,59.10
2019-05-16T12:01:27.463Z,56.50
2019-05-16T12:03:54.006Z,55.20
2019-05-16T12:06:21.394Z,58.60
2019-05-16T12:08:47.769Z,56.00
2019-05-16T12:11:14.172Z,56.60
2019-05-16T12:13:40.513Z,59.30
2019-05-16T12:16:07.758Z,59.90
2019-05-16T12:18:34.253Z,59.50
2019-05-16T12:21:00.828Z,59.30
2019-05-16T12:23:27.734Z,59.40
2019-05-16T12:25:56.496Z,61.00
2019-05-16T12:28:24.323Z,60.10
2019-05-16T12:30:51.690Z,59.50
2019-05-16T12:33:18.886Z,59.00
2019-05-16T12:35:47.408Z,57.90
2019-05-16T12:38:13.672Z,57.60
2019-05-16T12:40:40.049Z,56.40
2019-05-16T12:43:07.752Z,57.30
2019-05-16T12:45:34.378Z,57.90
2019-05-16T12:48:01.778Z,59.80
2019-05-16T12:50:29.024Z,58.80
2019-05-16T12:52:56.903Z,57.80
2019-05-16T12:55:23.395Z,56.70
2019-05-16T12:57:50.362Z,55.90
2019-05-16T13:00:19.162Z,55.20
2019-05-16T13:02:47.300Z,55.60
2019-05-16T13:05:13.911Z,54.90
2019-05-16T13:07:40.333Z,54.80
2019-05-16T13:10:06.741Z,54.60
2019-05-16T13:12:34.181Z,54.70
2019-05-16T13:15:00.620Z,54.10
2019-05-16T13:17:27.492Z,54.20
2019-05-16T13:19:54.053Z,54.70
2019-05-16T13:22:20.479Z,54.70
2019-05-16T13:24:47.896Z,54.60
2019-05-16T13:27:20.064Z,54.80
2019-05-16T13:29:42.780Z,54.60
2019-05-16T13:32:10.099Z,54.70
2019-05-16T13:34:38.334Z,54.70
2019-05-16T13:37:07.369Z,54.40
2019-05-16T13:39:32.966Z,55.00
2019-05-16T13:41:59.549Z,55.00
2019-05-16T13:44:27.458Z,55.50
2019-05-16T13:46:54.079Z,56.00
2019-05-16T13:49:20.418Z,56.60
2019-05-16T13:51:46.843Z,56.90
2019-05-16T13:54:13.386Z,56.90
2019-05-16T13:56:40.182Z,55.90
2019-05-16T13:59:07.738Z,56.40
2019-05-16T14:01:36.747Z,56.40
2019-05-16T14:04:02.600Z,56.20
2019-05-16T14:06:28.986Z,56.90
2019-05-16T14:08:56.799Z,57.80
2019-05-16T14:11:23.293Z,57.90
2019-05-16T14:13:49.811Z,56.90
2019-05-16T14:16:18.047Z,57.30
2019-05-16T14:18:46.829Z,57.40
2019-05-16T14:21:13.371Z,57.00
2019-05-16T14:23:39.804Z,57.00
2019-05-16T14:26:07.071Z,57.20
2019-05-16T14:28:33.933Z,58.10
2019-05-16T14:31:00.466Z,58.30
2019-05-16T14:33:28.024Z,58.80
2019-05-16T14:35:56.389Z,58.40
2019-05-16T14:38:22.717Z,57.70
2019-05-16T14:40:50.302Z,57.50
2019-05-16T14:43:17.236Z,57.40
2019-05-16T14:45:46.732Z,57.80
2019-05-16T14:48:13.001Z,57.00
2019-05-16T14:50:39.389Z,56.40
2019-05-16T14:53:07.449Z,56.50
2019-05-16T14:55:37.805Z,56.00
2019-05-16T14:58:03.149Z,55.90
2019-05-16T15:00:30.555Z,56.90
2019-05-16T15:02:58.919Z,56.30
2019-05-16T15:05:25.395Z,56.20
2019-05-16T15:07:52.880Z,56.40
2019-05-16T15:10:19.357Z,55.90
2019-05-16T15:12:47.076Z,56.60
2019-05-16T15:15:21.224Z,56.60
2019-05-16T15:17:42.125Z,56.80
2019-05-16T15:20:08.536Z,56.40
2019-05-16T15:22:38.341Z,56.20
2019-05-16T15:25:07.768Z,55.70
2019-05-16T15:27:33.261Z,55.10
2019-05-16T15:29:59.613Z,55.10
2019-05-16T15:32:31.582Z,55.40
2019-05-16T15:34:57.555Z,56.00
2019-05-16T15:37:23.938Z,56.00
2019-05-16T15:39:53.959Z,56.20
2019-05-16T15:42:18.514Z,56.40
2019-05-16T15:44:44.861Z,56.40
2019-05-16T15:47:11.548Z,56.60
2019-05-16T15:49:37.946Z,56.90
2019-05-16T15:52:07.347Z,57.00
2019-05-16T15:54:33.690Z,57.00
2019-05-16T15:57:00.093Z,57.00
2019-05-16T15:59:27.222Z,57.50
2019-05-16T16:01:53.751Z,57.60
2019-05-16T16:04:20.360Z,58.10
2019-05-16T16:06:47.379Z,58.60
2019-05-16T16:09:17.169Z,58.70
2019-05-16T16:11:43.330Z,58.80
2019-05-16T16:14:09.777Z,58.50
2019-05-16T16:16:36.307Z,58.50
2019-05-16T16:19:03.137Z,58.10
2019-05-16T16:21:29.682Z,57.70
2019-05-16T16:23:57.325Z,57.40
2019-05-16T16:26:23.791Z,58.20
2019-05-16T16:28:50.294Z,58.40
2019-05-16T16:31:17.050Z,57.80
2019-05-16T16:33:43.456Z,57.80
2019-05-16T16:36:10.205Z,57.50
2019-05-16T16:38:37.200Z,57.00
2019-05-16T16:41:03.895Z,57.50
2019-05-16T16:43:30.294Z,57.70
2019-05-16T16:46:06.230Z,57.20
2019-05-16T16:48:26.648Z,56.50
2019-05-16T16:50:53.186Z,56.70
2019-05-16T16:53:19.802Z,56.80
2019-05-16T16:55:47.599Z,56.70
2019-05-16T16:58:14.102Z,56.40
2019-05-16T17:00:40.517Z,56.20
2019-05-16T17:03:10.381Z,56.40
2019-05-16T17:05:37.201Z,56.50
2019-05-16T17:08:03.726Z,56.60
2019-05-16T17:10:31.218Z,56.90
2019-05-16T17:12:57.824Z,57.20
2019-05-16T17:15:27.200Z,57.80
2019-05-16T17:17:53.408Z,57.80
2019-05-16T17:20:19.821Z,58.00
2019-05-16T17:22:46.809Z,58.00
2019-05-16T17:25:14.628Z,57.80
2019-05-16T17:27:41.175Z,57.90
2019-05-16T17:30:13.249Z,58.10
2019-05-16T17:32:39.681Z,58.40
2019-05-16T17:35:06.792Z,58.50
2019-05-16T17:37:37.481Z,58.50
2019-05-16T17:40:04.288Z,58.20
2019-05-16T17:42:37.365Z,58.30
2019-05-16T17:45:04.354Z,58.50
2019-05-16T17:47:31.034Z,59.00
2019-05-16T17:49:57.892Z,59.00
2019-05-16T17:52:27.159Z,58.60
2019-05-16T17:54:53.355Z,58.50
2019-05-16T17:57:19.958Z,58.20
2019-05-16T17:59:47.977Z,58.20
2019-05-16T18:02:17.104Z,58.30
2019-05-16T18:04:43.032Z,58.60
2019-05-16T18:07:09.589Z,58.60
2019-05-16T18:09:36.846Z,58.90
2019-05-16T18:12:03.644Z,58.80
2019-05-16T18:14:31.917Z,59.00
2019-05-16T18:17:01.907Z,59.00
2019-05-16T18:19:26.601Z,59.40
2019-05-16T18:21:53.108Z,59.50
2019-05-16T18:24:19.468Z,59.60
2019-05-16T18:26:45.879Z,59.60
2019-05-16T18:29:12.291Z,59.50
2019-05-16T18:31:38.991Z,59.70
2019-05-16T18:34:07.357Z,59.90
2019-05-16T18:36:33.615Z,60.10
2019-05-16T18:39:01.032Z,60.20
2019-05-16T18:41:27.515Z,60.20
2019-05-16T18:43:56.592Z,60.20
2019-05-16T18:46:23.008Z,60.30
2019-05-16T18:48:49.433Z,60.30
2019-05-16T18:51:15.847Z,60.90
2019-05-16T18:53:42.128Z,61.20
2019-05-16T18:56:08.440Z,61.40
2019-05-16T18:58:37.032Z,61.70
2019-05-16T19:01:03.123Z,62.30
2019-05-16T19:03:29.793Z,62.50
2019-05-16T19:05:57.996Z,62.70
2019-05-16T19:08:24.376Z,63.60
2019-05-16T19:10:50.748Z,62.80
2019-05-16T19:13:17.536Z,62.90
2019-05-16T19:15:46.592Z,62.90
2019-05-16T19:18:13.070Z,63.10
2019-05-16T19:20:39.530Z,63.10
2019-05-16T19:23:07.486Z,63.30
2019-05-16T19:25:34.202Z,63.30
2019-05-16T19:28:00.969Z,63.50
2019-05-16T19:30:27.374Z,63.60
2019-05-16T19:32:53.900Z,63.60
2019-05-16T19:35:20.308Z,64.00
2019-05-16T19:37:47.179Z,63.90
2019-05-16T19:40:17.194Z,63.90
2019-05-16T19:42:43.721Z,64.00
2019-05-16T19:45:10.160Z,64.30
2019-05-16T19:47:40.841Z,64.10
2019-05-16T19:50:06.648Z,64.30
2019-05-16T19:52:33.093Z,64.70
2019-05-16T19:54:59.412Z,64.70
2019-05-16T19:57:26.602Z,65.30
2019-05-16T19:59:53.016Z,65.30
2019-05-16T20:02:19.500Z,65.60
2019-05-16T20:04:47.137Z,65.90
2019-05-16T20:07:13.650Z,65.60
2019-05-16T20:09:40.241Z,65.50
2019-05-16T20:12:07.869Z,65.20
2019-05-16T20:14:36.521Z,65.30
2019-05-16T20:17:02.552Z,65.50
2019-05-16T20:19:29.651Z,65.80
2019-05-16T20:21:58.058Z,65.70
2019-05-16T20:24:24.523Z,65.70
2019-05-16T20:26:51.018Z,66.50
2019-05-16T20:29:17.554Z,67.00
2019-05-16T20:31:43.953Z,66.70
2019-05-16T20:34:12.255Z,66.70
2019-05-16T20:36:38.869Z,66.40
2019-05-16T20:39:08.579Z,66.30
2019-05-16T20:41:36.861Z,66.60
2019-05-16T20:44:06.452Z,66.70
2019-05-16T20:46:33.681Z,66.70
2019-05-16T20:49:00.214Z,67.30
2019-05-16T20:51:27.016Z,67.40
2019-05-16T20:53:53.587Z,67.30
2019-05-16T20:56:21.024Z,68.10
2019-05-16T20:58:48.683Z,68.90
2019-05-16T21:01:17.275Z,69.50
2019-05-16T21:03:43.513Z,69.50
2019-05-16T21:06:09.907Z,69.50
2019-05-16T21:08:37.086Z,69.40
2019-05-16T21:11:06.491Z,69.70
2019-05-16T21:13:32.870Z,69.90
2019-05-16T21:15:59.312Z,69.90
2019-05-16T21:18:26.740Z,69.60
2019-05-16T21:20:53.123Z,69.70
2019-05-16T21:23:19.675Z,69.60
2019-05-16T21:25:46.756Z,70.00
2019-05-16T21:28:13.354Z,70.30
2019-05-16T21:30:39.766Z,70.60
2019-05-16T21:33:07.098Z,70.50
2019-05-16T21:35:33.530Z,70.60
2019-05-16T21:37:59.954Z,71.40
2019-05-16T21:40:26.712Z,71.40
2019-05-16T21:42:58.456Z,71.70
2019-05-16T21:45:23.043Z,71.60
2019-05-16T21:47:49.634Z,71.50
2019-05-16T21:50:16.312Z,71.60
2019-05-16T21:52:47.001Z,72.10
2019-05-16T21:55:14.496Z,72.70
2019-05-16T21:57:41.806Z,73.10
2019-05-16T22:00:39.617Z,72.90
2019-05-16T22:03:07.004Z,73.10
2019-05-16T22:05:33.333Z,73.30
2019-05-16T22:07:59.926Z,73.30
2019-05-16T22:10:26.752Z,73.50
2019-05-16T22:12:57.161Z,74.00
2019-05-16T22:15:23.782Z,74.20
2019-05-16T22:17:50.264Z,74.40
2019-05-16T22:20:16.801Z,74.50
2019-05-16T22:22:43.345Z,75.00
2019-05-16T22:25:09.986Z,75.20
2019-05-16T22:27:36.596Z,75.90
2019-05-16T22:30:07.103Z,75.00
2019-05-16T22:32:33.437Z,75.00
2019-05-16T22:35:00.057Z,75.10
2019-05-16T22:37:26.669Z,75.30
2019-05-16T22:39:53.047Z,75.50
2019-05-16T22:42:19.513Z,75.80
2019-05-16T22:44:47.891Z,76.10
2019-05-16T22:47:16.999Z,76.40
2019-05-16T22:49:42.616Z,76.30
2019-05-16T22:52:09.030Z,76.20
2019-05-16T22:54:37.101Z,76.00
2019-05-16T22:57:03.888Z,76.20
2019-05-16T22:59:30.883Z,76.20
2019-05-16T23:01:57.284Z,76.30
2019-05-16T23:04:23.701Z,76.80
2019-05-16T23:06:51.232Z,76.60
2019-05-16T23:09:17.611Z,77.00
2019-05-16T23:11:43.953Z,77.10
2019-05-16T23:14:10.436Z,77.20
2019-05-16T23:16:37.327Z,77.50
2019-05-16T23:19:03.945Z,77.60
2019-05-16T23:21:30.407Z,78.10
2019-05-16T23:23:57.139Z,78.10
2019-05-16T23:26:23.661Z,78.30
2019-05-16T23:28:50.340Z,78.40
2019-05-16T23:31:16.839Z,78.50
2019-05-16T23:33:43.193Z,78.50
2019-05-16T23:36:09.613Z,78.40
2019-05-16T23:38:36.856Z,78.10
2019-05-16T23:41:03.330Z,78.10
2019-05-16T23:43:29.758Z,78.10
2019-05-16T23:45:58.011Z,78.00
2019-05-16T23:48:24.513Z,77.80
2019-05-16T23:50:51.928Z,77.90
2019-05-16T23:53:18.325Z,77.90
2019-05-16T23:55:46.761Z,78.10
2019-05-16T23:58:13.141Z,78.50
